Details From KPHL - Philadelphia Intl
To TNCM - St Maarten - Princess Juliana Intl
Flight Number -
Tags Generated
Created
Modified
Stats Distance 1,455 nm / 2,694 km
Max Altitude 0 ft / 0 m
Waypoints 4
Social Downloads 0
Likes 0
Share VATSIM

Download

Looking for another format? Having issues loading an existing format? Contact us
Advertisement - Login to hide

Notes

Generated

Route

KPHL NUTRE PJD TNCM

ID Type Via Altitude Latitude Longitude Leg Dist Tot Dist Heading (true) Name
O KPHL APT - 0 ft / 0 m 39.87834˚ -75.23001˚ - 0 nm - -
NUTRE FIX - 0 ft / 0 m 28.78692˚ -68.56506˚ 743 nm 743 nm 152° / 155° -
PJD NDB - 0 ft / 0 m 18.03833˚ -63.11833˚ 711 nm 1454 nm 154° / 156° ST MAARTEN NDB
O TNCM APT - 0 ft / 0 m 18.03937˚ -63.11961˚ 0 nm 1454 nm 310° / 310° -

Altitude Profile

Advertisement - Login to hide

Weather


0- 5 10 15 20 25 30 35+ Temperature / ° C

Clouds and Precipitation
Forecast for 2017-12-14 06:00 UTC. Updated an hour ago

Ground ~20,000 ft ~40,000 ft Winds

KPHL

Details ICAO KPHL (PHL)
Name Philadelphia Intl
Region United States
Timezone America/New_York (UTC-5.0)
Stats Elevation 36 ft / 11 m (AMSL)
Location 39.873865° -75.237388°
Runways 4
Magnetic Variation 12.061° W

METAR

KPHL 140633Z 14005KT 10SM BKN009 OVC035 M02/M04 A2960 RMK AO2 SNE01 P0000 T10221039

Decode

TAF

TAF AMD KPHL 140639Z 1407/1512 17005KT P6SM VCSH OVC035 TEMPO 1407/1409 OVC008 FM140900 21005KT P6SM VCSH OVC035 TEMPO 1410/1411 2SM -SN FM141100 24005KT P6SM OVC035 FM141400 30010G20KT P6SM BKN035 FM142200 32008KT P6SM SCT200

Decode

Departure Runways

ID Width Length Bearing (true) Bearing (mag) Surface Threshold Offset Overrun Length
08 151 ft / 46 m 4,991 ft / 1,521 m 75.45° 87.51° Asphalt 0 ft / 0 m 0 ft / 0 m
09L 151 ft / 46 m 9,481 ft / 2,890 m 75.42° 87.48° Asphalt 0 ft / 0 m 413 ft / 126 m
09R 200 ft / 61 m 10,485 ft / 3,196 m 75.41° 87.47° Asphalt 0 ft / 0 m 299 ft / 91 m
17 151 ft / 46 m 5,466 ft / 1,666 m 159.13° 171.19° Asphalt 0 ft / 0 m 200 ft / 61 m
26 151 ft / 46 m 4,991 ft / 1,521 m 255.47° 267.53° Asphalt 0 ft / 0 m 0 ft / 0 m
27L 200 ft / 61 m 10,485 ft / 3,196 m 255.43° 267.49° Asphalt 0 ft / 0 m 308 ft / 94 m
27R 151 ft / 46 m 9,481 ft / 2,890 m 255.44° 267.50° Asphalt 0 ft / 0 m 400 ft / 122 m
35 151 ft / 46 m 5,466 ft / 1,666 m 339.13° 351.19° Asphalt 0 ft / 0 m 10 ft / 3 m

TNCM

Details ICAO TNCM (SXM)
Name St Maarten - Princess Juliana Intl
Region Caribbean Netherlands, Aruba, Curaçao, Sint Maarten
Timezone Unknown (UTC+0.0)
Stats Elevation 12 ft / 4 m (AMSL)
Location 18.040889° -63.108974°
Runways 1
Magnetic Variation 14.325° W

METAR

Not found

TAF

TNCM 140527Z 1406/1506 09008KT P6SM SCT020

Decode

Destination Runways

ID Width Length Bearing (true) Bearing (mag) Surface Threshold Offset Overrun Length
10 148 ft / 45 m 7,464 ft / 2,275 m 81.43° 95.76° Asphalt 0 ft / 0 m 151 ft / 46 m
28 148 ft / 45 m 7,464 ft / 2,275 m 261.44° 275.77° Asphalt 397 ft / 121 m 0 ft / 0 m

Popular Alternatives